Time;durP1;ratioP1;P1;durP2;ratioP2;P2;SDS_P1;SDS_P2;PMS_P1;PMS_P2;Temp;Humidity;BMP_temperature;BMP_pressure;BME280_temperature;BME280_humidity;BME280_pressure;Samples;Min_cycle;Max_cycle;Signal;HPM_P1;HPM_P2
2022/03/26 00:01:00;;;;;;;38.53;18.27;;;;;;;11.48;28.63;103255.56;5073645;28;20079;-75
2022/03/26 00:03:25;;;;;;;43.65;19.45;;;;;;;11.49;28.62;103266.25;5073946;28;20036;-73
2022/03/26 00:05:51;;;;;;;46.92;20.40;;;;;;;11.52;28.49;103262.28;5073985;28;20489;-75
2022/03/26 00:08:16;;;;;;;39.35;17.95;;;;;;;11.57;28.99;103256.22;5073961;28;20138;-75
2022/03/26 00:10:41;;;;;;;43.65;19.27;;;;;;;11.54;28.81;103262.91;5073727;28;20032;-74
2022/03/26 00:13:07;;;;;;;41.97;19.20;;;;;;;11.43;28.78;103266.25;5055072;28;20040;-73
2022/03/26 00:15:33;;;;;;;45.75;17.95;;;;;;;11.38;28.56;103269.59;5073475;28;20050;-75
2022/03/26 00:17:59;;;;;;;46.08;21.85;;;;;;;11.45;28.48;103264.16;5071066;28;20158;-74
2022/03/26 00:20:24;;;;;;;41.65;19.90;;;;;;;11.37;28.63;103265.22;5073898;28;20036;-73
2022/03/26 00:22:50;;;;;;;47.67;20.23;;;;;;;11.42;28.44;103268.13;5073527;28;20120;-75
2022/03/26 00:25:17;;;;;;;40.97;20.65;;;;;;;11.36;28.98;103265.41;5073589;28;20040;-74
2022/03/26 00:27:42;;;;;;;55.63;21.35;;;;;;;11.23;28.74;103266.25;5051690;28;20486;-75
2022/03/26 00:30:10;;;;;;;39.53;20.25;;;;;;;11.31;29.58;103257.91;5053433;28;20032;-75
2022/03/26 00:32:35;;;;;;;51.58;21.13;;;;;;;11.31;28.95;103263.34;5069024;28;20512;-75
2022/03/26 00:35:02;;;;;;;44.55;20.50;;;;;;;11.36;29.25;103265.41;5069315;28;20041;-75
2022/03/26 00:37:27;;;;;;;53.67;22.60;;;;;;;11.30;29.04;103264.38;5073288;28;20048;-75
2022/03/26 00:39:53;;;;;;;45.58;19.42;;;;;;;11.32;29.09;103254.13;5073509;28;20040;-75
2022/03/26 00:42:19;;;;;;;44.78;21.52;;;;;;;11.31;28.79;103257.91;5073292;28;20066;-75
2022/03/26 00:44:44;;;;;;;47.65;22.95;;;;;;;11.29;29.53;103257.28;5072729;28;20032;-74
2022/03/26 00:47:10;;;;;;;38.78;20.98;;;;;;;11.21;29.30;103264.78;5073395;28;20104;-74
2022/03/26 00:49:36;;;;;;;45.30;21.90;;;;;;;11.09;29.21;103256.44;5072881;28;20422;-73
2022/03/26 00:52:03;;;;;;;43.25;21.30;;;;;;;11.09;29.41;103244.72;5073177;28;20381;-76
2022/03/26 00:54:30;;;;;;;50.08;22.25;;;;;;;11.03;30.32;103257.28;5072784;28;20025;-74
2022/03/26 00:56:57;;;;;;;44.22;21.27;;;;;;;10.97;30.32;103259.97;5073128;28;20374;-76
2022/03/26 00:59:22;;;;;;;45.75;22.02;;;;;;;11.02;30.09;103263.75;5073919;28;20021;-76
2022/03/26 01:01:48;;;;;;;46.97;22.15;;;;;;;10.96;30.02;103261.84;5072679;28;20048;-75
2022/03/26 01:04:13;;;;;;;42.15;21.35;;;;;;;10.77;31.43;103261.84;5072964;28;20052;-76
2022/03/26 01:06:38;;;;;;;43.13;22.13;;;;;;;10.98;31.98;103262.47;5072823;28;20111;-75
2022/03/26 01:09:04;;;;;;;46.35;21.73;;;;;;;10.81;32.74;103263.94;5072811;28;20367;-75
2022/03/26 01:11:29;;;;;;;48.13;22.70;;;;;;;10.76;32.92;103268.31;5073135;28;20041;-75
2022/03/26 01:13:56;;;;;;;53.67;23.95;;;;;;;10.80;31.92;103273.16;5072920;28;20448;-75
2022/03/26 01:16:25;;;;;;;52.03;24.42;;;;;;;10.77;32.00;103261.84;5072286;28;20025;-76
2022/03/26 01:18:51;;;;;;;46.95;23.45;;;;;;;10.71;32.17;103266.22;5072554;28;20052;-75
2022/03/26 01:21:17;;;;;;;46.10;22.38;;;;;;;10.72;31.91;103256.22;5072284;28;20559;-75
2022/03/26 01:23:44;;;;;;;52.83;23.67;;;;;;;10.61;32.19;103261.19;5072615;28;20066;-75
2022/03/26 01:26:09;;;;;;;42.00;23.00;;;;;;;10.68;31.65;103263.94;5067748;28;20029;-75
2022/03/26 01:28:35;;;;;;;54.28;24.17;;;;;;;10.61;31.27;103261.19;5072432;28;20082;-75
2022/03/26 01:31:00;;;;;;;51.03;24.45;;;;;;;10.49;31.58;103260.13;5084636;28;20048;-76
2022/03/26 01:33:26;;;;;;;53.38;25.15;;;;;;;10.55;31.97;103264.75;5092203;28;20043;-76
2022/03/26 01:35:52;;;;;;;43.85;22.88;;;;;;;10.59;32.85;103254.28;5092524;28;20054;-75
2022/03/26 01:38:18;;;;;;;48.92;23.52;;;;;;;10.73;32.67;103256.00;5092728;28;20462;-76
2022/03/26 01:40:43;;;;;;;50.53;25.10;;;;;;;10.60;33.02;103258.69;5092353;28;20044;-75
2022/03/26 01:43:09;;;;;;;45.10;22.45;;;;;;;10.19;32.68;103264.19;5073954;28;20040;-76
2022/03/26 01:45:34;;;;;;;43.85;22.33;;;;;;;10.18;33.13;103261.66;5092128;28;20036;-75
2022/03/26 01:48:00;;;;;;;52.55;23.38;;;;;;;10.17;32.95;103258.13;5091904;28;20039;-76
2022/03/26 01:50:28;;;;;;;48.58;24.02;;;;;;;9.95;34.26;103264.72;5092163;28;20024;-75
2022/03/26 01:52:54;;;;;;;41.38;21.20;;;;;;;9.91;34.07;103259.88;5091944;28;20102;-76
2022/03/26 01:55:20;;;;;;;43.25;21.98;;;;;;;10.09;34.35;103254.75;5091674;28;20520;-75
2022/03/26 01:57:45;;;;;;;48.03;22.27;;;;;;;10.04;34.47;103259.97;5073417;28;20036;-75
2022/03/26 02:00:12;;;;;;;44.67;22.35;;;;;;;9.97;34.40;103262.63;5092583;28;20037;-75
2022/03/26 02:02:43;;;;;;;44.22;21.15;;;;;;;9.62;34.25;103259.13;5091869;28;20040;-73
2022/03/26 02:05:08;;;;;;;;;;;;;;;9.82;34.03;103257.34;5074882;28;20052;-76
2022/03/26 02:07:34;;;;;;;42.10;21.67;;;;;;;9.95;34.84;103256.59;5071254;28;20449;-76
2022/03/26 02:10:00;;;;;;;46.10;22.90;;;;;;;9.80;35.58;103248.56;5071728;28;20094;-75
2022/03/26 02:12:29;;;;;;;43.00;23.08;;;;;;;9.76;34.67;103249.19;5070445;28;20040;-76
2022/03/26 02:14:57;;;;;;;44.67;21.63;;;;;;;9.56;34.98;103259.94;5071415;28;20033;-76
2022/03/26 02:17:22;;;;;;;41.28;21.85;;;;;;;9.49;36.52;103250.91;5070772;28;20047;-76
2022/03/26 02:19:53;;;;;;;53.58;24.38;;;;;;;9.83;36.13;103250.06;5070999;28;20033;-76
2022/03/26 02:22:20;;;;;;;49.83;22.93;;;;;;;9.63;37.23;103247.25;5070707;28;20078;-77
2022/03/26 02:24:47;;;;;;;46.50;23.13;;;;;;;9.65;36.77;103252.44;5070482;28;20442;-75
2022/03/26 02:27:12;;;;;;;44.28;21.98;;;;;;;9.58;36.65;103251.59;5069644;28;20059;-76
2022/03/26 02:29:38;;;;;;;44.85;22.27;;;;;;;9.48;36.99;103249.25;5070840;28;20386;-74
2022/03/26 02:32:05;;;;;;;39.90;20.80;;;;;;;9.58;37.25;103244.31;5070538;28;20063;-76
2022/03/26 02:34:30;;;;;;;46.38;22.92;;;;;;;8.71;39.83;103244.81;5070752;28;20127;-76
2022/03/26 02:36:57;;;;;;;48.13;22.17;;;;;;;8.89;39.70;103248.75;5070446;28;20116;-76
2022/03/26 02:39:22;;;;;;;48.15;23.23;;;;;;;9.50;37.21;103249.88;5070520;28;20035;-76
2022/03/26 02:41:48;;;;;;;55.78;23.05;;;;;;;9.62;37.43;103247.44;5070542;28;20044;-76
2022/03/26 02:44:13;;;;;;;45.40;23.13;;;;;;;9.44;36.90;103247.13;5071099;28;20329;-75
2022/03/26 02:46:39;;;;;;;48.95;22.52;;;;;;;9.50;37.24;103254.47;5070512;28;20067;-76
2022/03/26 02:49:04;;;;;;;44.92;21.77;;;;;;;9.74;36.45;103254.78;5070984;28;20024;-76
2022/03/26 02:51:30;;;;;;;46.38;23.35;;;;;;;9.62;37.10;103251.00;5070215;28;20652;-75
2022/03/26 02:53:55;;;;;;;45.42;21.52;;;;;;;8.30;40.56;103251.88;5070745;28;20103;-75
2022/03/26 02:56:21;;;;;;;40.97;22.85;;;;;;;8.76;39.74;103251.34;5071114;28;20474;-75
2022/03/26 02:58:48;;;;;;;49.22;23.58;;;;;;;9.13;38.97;103244.78;5070177;28;20024;-76
2022/03/26 03:01:13;;;;;;;44.55;23.58;;;;;;;9.26;38.41;103249.44;5070303;28;20045;-77
2022/03/26 03:03:39;;;;;;;61.42;23.40;;;;;;;9.10;38.68;103249.75;5070224;28;20044;-76
2022/03/26 03:06:05;;;;;;;46.50;23.48;;;;;;;9.03;39.16;103252.41;5070807;28;20191;-76
2022/03/26 03:08:30;;;;;;;51.05;22.60;;;;;;;9.26;38.29;103253.00;5053092;28;20463;-76
2022/03/26 03:10:56;;;;;;;47.78;22.55;;;;;;;9.06;39.09;103252.00;5070698;28;20119;-76
2022/03/26 03:13:22;;;;;;;46.63;21.58;;;;;;;9.22;38.25;103245.47;5052874;28;20040;-77
2022/03/26 03:15:48;;;;;;;45.60;24.02;;;;;;;9.46;37.86;103243.19;5070581;28;20036;-76
2022/03/26 03:18:14;;;;;;;49.47;24.33;;;;;;;8.69;39.62;103245.03;5067574;28;20028;-76
2022/03/26 03:20:39;;;;;;;55.92;25.52;;;;;;;9.11;39.22;103236.03;5070328;28;20109;-76
2022/03/26 03:23:05;;;;;;;49.45;24.35;;;;;;;8.70;39.71;103243.97;5067953;28;20386;-75
2022/03/26 03:25:31;;;;;;;52.22;24.40;;;;;;;8.76;39.61;103245.09;5072465;28;20040;-76
2022/03/26 03:27:57;;;;;;;63.00;27.10;;;;;;;8.59;39.92;103239.09;5054263;28;20025;-75
2022/03/26 03:30:23;;;;;;;60.17;27.58;;;;;;;8.61;39.51;103238.91;5054318;28;20033;-76
2022/03/26 03:32:48;;;;;;;67.07;26.73;;;;;;;8.69;39.52;103239.63;5053431;28;20045;-76
2022/03/26 03:35:14;;;;;;;55.58;26.20;;;;;;;8.88;37.92;103235.41;5054693;28;20490;-76
2022/03/26 03:37:40;;;;;;;53.97;25.20;;;;;;;8.72;39.07;103239.22;5054291;28;20040;-75
2022/03/26 03:40:06;;;;;;;51.30;26.58;;;;;;;8.51;39.48;103227.56;5036159;28;20529;-76
2022/03/26 03:42:32;;;;;;;54.90;25.05;;;;;;;8.98;38.14;103235.09;5054315;28;20041;-76
2022/03/26 03:44:58;;;;;;;54.92;24.95;;;;;;;9.09;38.15;103235.38;5060488;28;20033;-76
2022/03/26 03:47:23;;;;;;;61.85;29.48;;;;;;;8.93;38.55;103230.25;5074141;28;20422;-76
2022/03/26 03:49:49;;;;;;;59.13;26.60;;;;;;;9.10;37.98;103226.22;5073984;28;20106;-75
2022/03/26 03:52:14;;;;;;;52.33;26.85;;;;;;;8.81;38.02;103223.69;5073656;28;20036;-76
2022/03/26 03:54:40;;;;;;;55.08;26.77;;;;;;;8.87;38.01;103217.50;5073573;28;20052;-76
2022/03/26 03:57:05;;;;;;;49.97;24.88;;;;;;;8.85;39.21;103223.13;5074093;28;20362;-75
2022/03/26 03:59:31;;;;;;;50.83;25.38;;;;;;;8.84;38.17;103231.41;5073684;28;20042;-75
2022/03/26 04:01:56;;;;;;;57.45;27.30;;;;;;;8.73;39.71;103226.53;5055124;28;20119;-75
2022/03/26 04:04:21;;;;;;;55.85;25.88;;;;;;;8.62;40.54;103219.75;5073645;28;20070;-75
2022/03/26 04:06:47;;;;;;;51.85;27.98;;;;;;;8.70;40.65;103222.34;5072999;28;20358;-75
2022/03/26 04:09:12;;;;;;;53.40;26.35;;;;;;;8.96;39.67;103216.31;5073411;28;20056;-76
2022/03/26 04:11:37;;;;;;;54.15;25.02;;;;;;;9.13;39.32;103212.28;5073337;28;20096;-73
2022/03/26 04:14:03;;;;;;;48.67;25.83;;;;;;;8.84;39.17;103218.72;5073277;28;20039;-76
2022/03/26 04:16:28;;;;;;;57.95;26.23;;;;;;;8.31;40.73;103221.13;5073092;28;20405;-76
2022/03/26 04:18:54;;;;;;;54.58;26.83;;;;;;;7.93;41.42;103218.59;5077590;28;20081;-76
2022/03/26 04:21:19;;;;;;;67.10;25.40;;;;;;;8.43;40.49;103220.41;5080994;28;20132;-75
2022/03/26 04:23:45;;;;;;;57.33;26.98;;;;;;;8.76;39.97;103220.75;5073191;28;20040;-75
2022/03/26 04:26:10;;;;;;;53.78;26.10;;;;;;;8.82;39.04;103223.50;5073355;28;20056;-76
2022/03/26 04:28:35;;;;;;;53.00;25.63;;;;;;;8.64;39.73;103219.59;5072822;28;20521;-76
2022/03/26 04:31:01;;;;;;;52.28;25.45;;;;;;;8.91;39.14;103222.34;5054797;28;20127;-74
2022/03/26 04:33:27;;;;;;;53.47;25.63;;;;;;;8.96;38.95;103217.16;5071891;28;20040;-75
2022/03/26 04:35:52;;;;;;;56.03;26.33;;;;;;;9.06;38.73;103218.66;5072411;28;20493;-76
2022/03/26 04:38:18;;;;;;;61.33;25.52;;;;;;;8.56;39.45;103222.41;5073256;28;20013;-76
2022/03/26 04:40:43;;;;;;;49.75;25.35;;;;;;;8.47;39.71;103224.41;5072692;28;20584;-76
2022/03/26 04:43:09;;;;;;;53.30;25.77;;;;;;;8.31;40.37;103216.53;5072922;28;20200;-77
2022/03/26 04:45:34;;;;;;;60.38;27.35;;;;;;;8.35;40.21;103223.22;5054467;28;20041;-76
2022/03/26 04:48:00;;;;;;;52.40;25.42;;;;;;;8.10;41.15;103224.59;5072655;28;20086;-77
2022/03/26 04:50:26;;;;;;;60.45;26.30;;;;;;;8.05;41.34;103224.34;5073641;28;20051;-76
2022/03/26 04:52:52;;;;;;;55.22;26.42;;;;;;;8.27;41.25;103223.31;5073031;28;20032;-76
2022/03/26 04:55:18;;;;;;;59.10;28.38;;;;;;;8.70;39.83;103224.22;5072708;28;20528;-76
2022/03/26 04:57:48;;;;;;;62.33;26.88;;;;;;;8.15;41.29;103229.44;5072679;28;20035;-76
2022/03/26 05:00:16;;;;;;;56.15;29.35;;;;;;;8.55;40.13;103224.28;5073047;28;20379;-76
2022/03/26 05:02:42;;;;;;;59.95;29.27;;;;;;;8.63;39.58;103215.19;5071468;28;20070;-75
2022/03/26 05:05:10;;;;;;;65.13;28.60;;;;;;;8.69;39.39;103220.66;5073516;28;20052;-76
2022/03/26 05:07:45;;;;;;;60.90;28.02;;;;;;;8.37;39.80;103223.06;5072768;28;20413;-76
2022/03/26 05:10:11;;;;;;;53.60;27.20;;;;;;;8.41;39.71;103217.06;5072523;28;20040;-77
2022/03/26 05:12:37;;;;;;;55.13;28.20;;;;;;;8.25;40.08;103219.97;5072461;28;20098;-76
2022/03/26 05:15:03;;;;;;;58.95;28.10;;;;;;;8.23;40.09;103219.31;5066177;28;20036;-77
2022/03/26 05:17:41;;;;;;;51.53;26.27;;;;;;;7.86;40.76;103233.00;5071722;28;20124;-75
2022/03/26 05:20:08;;;;;;;55.97;26.20;;;;;;;7.59;42.55;103233.69;5072093;28;20048;-76
2022/03/26 05:22:35;;;;;;;54.08;26.92;;;;;;;8.10;40.56;103222.72;5072219;28;20128;-76
2022/03/26 05:25:01;;;;;;;57.15;26.27;;;;;;;8.16;40.89;103231.09;5072388;28;20048;-75
2022/03/26 05:27:27;;;;;;;56.53;26.58;;;;;;;8.11;40.12;103229.78;5073061;28;20028;-76
2022/03/26 05:29:52;;;;;;;53.95;27.17;;;;;;;8.17;40.26;103225.50;5054613;28;20036;-76
2022/03/26 05:32:18;;;;;;;58.38;27.73;;;;;;;7.76;41.99;103230.59;5072788;28;20121;-76
2022/03/26 05:34:45;;;;;;;52.95;26.42;;;;;;;8.13;40.23;103234.19;5071392;28;20446;-77
2022/03/26 05:37:12;;;;;;;60.53;27.73;;;;;;;8.25;40.26;103244.31;5072207;28;20043;-76
2022/03/26 05:39:37;;;;;;;56.70;28.20;;;;;;;8.26;40.26;103242.44;5072331;28;20044;-76
2022/03/26 05:42:03;;;;;;;57.80;27.20;;;;;;;8.21;40.15;103248.41;5073002;28;20032;-76
2022/03/26 05:44:28;;;;;;;58.05;26.63;;;;;;;8.60;39.38;103248.88;5072881;28;20440;-76
2022/03/26 05:46:53;;;;;;;61.58;27.38;;;;;;;8.31;40.50;103253.59;5071637;28;20089;-75
2022/03/26 05:49:19;;;;;;;64.80;28.08;;;;;;;8.25;40.35;103260.53;5071306;28;20058;-76
2022/03/26 05:51:45;;;;;;;66.68;29.70;;;;;;;8.19;40.41;103255.88;5071600;28;20064;-76
2022/03/26 05:54:11;;;;;;;61.90;29.60;;;;;;;8.10;40.75;103263.28;5071809;28;20044;-76
2022/03/26 05:56:37;;;;;;;59.05;28.67;;;;;;;7.92;41.59;103273.66;5071810;28;20032;-74
2022/03/26 05:59:09;;;;;;;57.28;28.08;;;;;;;7.54;43.34;103269.34;5072949;28;20041;-76
2022/03/26 06:01:35;;;;;;;67.15;28.45;;;;;;;8.29;41.16;103279.97;5071949;28;20032;-75
2022/03/26 06:04:02;;;;;;;60.08;28.65;;;;;;;8.30;41.32;103285.19;5072016;28;20033;-76
2022/03/26 06:06:27;;;;;;;66.32;28.77;;;;;;;8.35;40.91;103285.44;5067082;28;20137;-76
2022/03/26 06:08:53;;;;;;;58.45;28.02;;;;;;;8.55;40.82;103283.81;5053052;28;20237;-76
2022/03/26 06:11:18;;;;;;;62.83;28.83;;;;;;;8.52;40.33;103288.78;5048736;28;20029;-75
2022/03/26 06:13:44;;;;;;;60.42;28.23;;;;;;;8.37;41.73;103291.50;5071298;28;20413;-77
2022/03/26 06:16:10;;;;;;;69.00;29.80;;;;;;;8.29;41.94;103294.31;5071499;28;20032;-77
2022/03/26 06:18:36;;;;;;;65.65;32.15;;;;;;;8.38;41.76;103293.19;5071499;28;20037;-76
2022/03/26 06:21:05;;;;;;;76.82;35.20;;;;;;;8.50;41.41;103288.97;5071324;28;20066;-77
2022/03/26 06:23:31;;;;;;;73.82;32.67;;;;;;;8.90;39.99;103296.44;5071103;28;20036;-77
2022/03/26 06:25:56;;;;;;;71.63;33.17;;;;;;;8.35;41.24;103293.56;5066021;28;20037;-76
2022/03/26 06:28:22;;;;;;;67.30;30.08;;;;;;;8.79;40.47;103296.13;5071236;28;20058;-75
2022/03/26 06:30:47;;;;;;;84.88;30.77;;;;;;;8.88;39.85;103297.66;5071335;28;20119;-75
2022/03/26 06:33:15;;;;;;;66.45;30.48;;;;;;;8.95;39.74;103296.72;5070800;28;20455;-76
2022/03/26 06:35:41;;;;;;;62.10;31.35;;;;;;;9.14;39.70;103303.34;5071388;28;20498;-76
2022/03/26 06:38:07;;;;;;;62.92;30.27;;;;;;;9.20;39.78;103302.56;5071535;28;20040;-77
2022/03/26 06:40:32;;;;;;;72.55;32.00;;;;;;;8.98;40.30;103305.50;5071448;28;20397;-76
2022/03/26 06:42:57;;;;;;;66.95;31.35;;;;;;;8.78;40.85;103308.81;5053079;28;20029;-77
2022/03/26 06:45:23;;;;;;;69.38;32.53;;;;;;;9.04;40.83;103310.09;5063064;28;20041;-76
2022/03/26 06:47:48;;;;;;;74.43;34.50;;;;;;;8.62;41.77;103316.38;5071135;28;20103;-76
2022/03/26 06:50:14;;;;;;;75.97;33.10;;;;;;;7.73;44.17;103325.56;5071488;28;20036;-76
2022/03/26 06:52:39;;;;;;;65.05;32.58;;;;;;;8.72;41.75;103316.91;5069656;28;20037;-77
2022/03/26 06:55:05;;;;;;;73.30;33.13;;;;;;;9.27;40.46;103322.41;5070978;28;20177;-76
2022/03/26 06:57:31;;;;;;;72.35;34.15;;;;;;;9.30;40.47;103323.88;5070600;28;20028;-76
2022/03/26 06:59:56;;;;;;;74.15;37.90;;;;;;;9.32;40.83;103322.66;5070672;28;20072;-76
2022/03/26 07:02:22;;;;;;;79.05;36.38;;;;;;;9.10;42.12;103322.88;5071455;28;20039;-75
2022/03/26 07:04:47;;;;;;;83.93;37.53;;;;;;;9.87;39.98;103321.84;5068657;28;20037;-76
2022/03/26 07:07:14;;;;;;;78.50;36.45;;;;;;;9.35;41.38;103327.69;5050881;28;20037;-77
2022/03/26 07:09:39;;;;;;;87.53;41.10;;;;;;;9.46;41.66;103329.06;5090794;28;20067;-75
2022/03/26 07:12:05;;;;;;;91.70;44.83;;;;;;;9.65;40.95;103333.78;5091119;28;20054;-73
2022/03/26 07:14:31;;;;;;;113.47;50.35;;;;;;;9.84;40.33;103331.19;5091596;28;20037;-74
2022/03/26 07:16:56;;;;;;;117.60;49.85;;;;;;;10.45;39.50;103332.13;5090524;28;20104;-74
2022/03/26 07:19:22;;;;;;;132.75;55.13;;;;;;;9.81;41.00;103330.75;5090316;28;20048;-76
2022/03/26 07:21:47;;;;;;;125.20;54.00;;;;;;;9.55;41.69;103333.28;5090454;28;20408;-75
2022/03/26 07:24:12;;;;;;;143.05;62.80;;;;;;;10.49;39.56;103343.47;5090531;28;20028;-75
2022/03/26 07:26:38;;;;;;;128.00;59.17;;;;;;;10.27;40.11;103350.00;5089918;28;20036;-73
2022/03/26 07:29:03;;;;;;;131.30;60.85;;;;;;;11.32;38.25;103340.25;5090432;28;20028;-76
2022/03/26 07:31:29;;;;;;;152.52;69.93;;;;;;;11.27;38.01;103340.06;5069873;28;20413;-76
2022/03/26 07:33:54;;;;;;;160.27;72.80;;;;;;;11.52;37.64;103343.84;5069856;28;20390;-77
2022/03/26 07:36:19;;;;;;;154.60;72.13;;;;;;;11.70;36.68;103343.19;5069965;28;20112;-76
2022/03/26 07:38:45;;;;;;;170.32;75.78;;;;;;;11.84;37.24;103347.56;5070476;28;20091;-75
2022/03/26 07:41:11;;;;;;;166.90;72.10;;;;;;;12.09;36.37;103337.66;5076143;28;20039;-75
2022/03/26 07:43:36;;;;;;;155.27;72.25;;;;;;;11.97;36.51;103348.38;5079314;28;20101;-75
2022/03/26 07:46:03;;;;;;;177.13;75.68;;;;;;;11.79;37.01;103348.19;5069851;28;20509;-77
2022/03/26 07:48:28;;;;;;;153.27;72.30;;;;;;;12.24;36.01;103346.38;5070226;28;20535;-75
2022/03/26 07:50:54;;;;;;;154.00;72.68;;;;;;;12.56;35.31;103345.44;5085068;28;20033;-76
2022/03/26 07:53:22;;;;;;;155.00;68.88;;;;;;;12.29;35.85;103339.28;5070731;28;20032;-76
2022/03/26 07:55:48;;;;;;;152.10;68.22;;;;;;;12.91;34.39;103341.25;5069719;28;20035;-76
2022/03/26 07:58:13;;;;;;;132.15;64.82;;;;;;;12.86;34.29;103348.44;5051500;28;20028;-76
2022/03/26 08:00:38;;;;;;;145.15;68.47;;;;;;;12.99;34.61;103341.00;5069756;28;20061;-76
2022/03/26 08:03:04;;;;;;;143.05;67.78;;;;;;;12.74;35.33;103344.72;5068557;28;20129;-77
2022/03/26 08:05:29;;;;;;;137.05;64.70;;;;;;;12.60;35.87;103343.97;5070324;28;20524;-76
2022/03/26 08:07:55;;;;;;;137.30;67.20;;;;;;;13.27;34.07;103359.66;5064644;28;20094;-77
2022/03/26 08:10:20;;;;;;;145.10;66.95;;;;;;;13.30;34.30;103345.59;5060613;28;20040;-76
2022/03/26 08:12:46;;;;;;;147.45;64.78;;;;;;;12.86;35.52;103352.00;5047597;28;20452;-76
2022/03/26 08:15:12;;;;;;;142.32;64.22;;;;;;;13.57;33.87;103349.81;5068135;28;20081;-75
2022/03/26 08:17:37;;;;;;;133.45;62.17;;;;;;;13.28;34.70;103347.72;5065420;28;20017;-76
2022/03/26 08:20:03;;;;;;;138.00;65.43;;;;;;;12.98;35.06;103352.13;5068540;28;20056;-75
2022/03/26 08:22:29;;;;;;;113.95;55.08;;;;;;;13.21;34.90;103350.50;5047759;28;20029;-74
2022/03/26 08:24:54;;;;;;;120.95;57.33;;;;;;;13.52;33.90;103349.63;5066860;28;20049;-74
2022/03/26 08:27:19;;;;;;;124.63;55.65;;;;;;;13.59;33.56;103350.41;5064901;28;20056;-74
2022/03/26 08:29:46;;;;;;;116.82;55.80;;;;;;;13.86;33.44;103350.97;5060835;28;20051;-75
2022/03/26 08:32:12;;;;;;;114.55;55.17;;;;;;;13.57;33.39;103347.06;5064299;28;20044;-75
2022/03/26 08:34:37;;;;;;;118.97;55.90;;;;;;;13.37;33.86;103354.59;5063867;28;20033;-75
2022/03/26 08:37:03;;;;;;;118.88;55.35;;;;;;;14.49;31.69;103348.78;5064425;28;20056;-75
2022/03/26 08:39:28;;;;;;;110.15;51.42;;;;;;;13.91;32.46;103354.69;5066745;28;20024;-75
2022/03/26 08:41:54;;;;;;;104.70;49.67;;;;;;;13.80;32.40;103349.16;5066999;28;20044;-74
2022/03/26 08:44:19;;;;;;;116.00;54.28;;;;;;;14.14;32.07;103354.03;5066949;28;20028;-74
2022/03/26 08:46:44;;;;;;;113.78;52.17;;;;;;;14.06;32.37;103355.19;5064333;28;20506;-74
2022/03/26 08:49:10;;;;;;;115.13;51.38;;;;;;;13.99;32.42;103359.00;5064897;28;20067;-74
2022/03/26 08:51:35;;;;;;;113.97;52.10;;;;;;;13.31;33.22;103355.44;5066454;28;20047;-74
2022/03/26 08:54:01;;;;;;;111.18;51.58;;;;;;;14.69;30.60;103352.94;5066728;28;20036;-74
2022/03/26 08:56:27;;;;;;;105.55;47.78;;;;;;;13.77;31.96;103357.78;5067749;28;20071;-73
2022/03/26 08:58:52;;;;;;;117.03;51.65;;;;;;;14.11;31.33;103352.59;5065465;28;20069;-73
2022/03/26 09:01:18;;;;;;;100.68;46.28;;;;;;;13.94;31.75;103356.97;5069918;28;20462;-74
2022/03/26 09:03:43;;;;;;;101.50;48.72;;;;;;;14.02;31.26;103361.31;5066103;28;20075;-75
2022/03/26 09:06:10;;;;;;;101.38;45.83;;;;;;;14.03;30.92;103358.34;5057695;28;20043;-75
2022/03/26 09:08:36;;;;;;;97.50;45.92;;;;;;;14.09;30.21;103365.63;5058735;28;20107;-73
2022/03/26 09:11:04;;;;;;;96.20;45.50;;;;;;;15.07;28.57;103362.72;5064243;28;20039;-74
2022/03/26 09:13:30;;;;;;;112.60;48.03;;;;;;;15.67;27.61;103356.00;5064214;28;20028;-73
2022/03/26 09:15:55;;;;;;;97.50;44.95;;;;;;;16.19;25.87;103356.94;5069870;28;20035;-76
2022/03/26 09:18:22;;;;;;;94.65;44.33;;;;;;;15.69;26.07;103368.41;5071113;28;20402;-73
2022/03/26 09:20:48;;;;;;;94.28;44.75;;;;;;;16.06;25.30;103358.03;5070019;28;20115;-75
2022/03/26 09:23:14;;;;;;;78.38;37.45;;;;;;;14.90;26.40;103363.34;5071055;28;20173;-73
2022/03/26 09:25:41;;;;;;;86.53;40.72;;;;;;;15.18;26.16;103365.47;5069622;28;20036;-74
2022/03/26 09:28:07;;;;;;;78.20;35.75;;;;;;;15.00;26.52;103362.78;5069456;28;20059;-74
2022/03/26 09:30:32;;;;;;;80.18;36.75;;;;;;;15.20;27.07;103378.91;5067995;28;20037;-74
2022/03/26 09:32:59;;;;;;;75.50;35.38;;;;;;;14.92;27.07;103369.41;5065895;28;20060;-73
2022/03/26 09:35:24;;;;;;;78.13;36.83;;;;;;;15.37;27.54;103364.31;5066866;28;20438;-72
2022/03/26 09:37:50;;;;;;;80.40;37.42;;;;;;;15.48;27.32;103362.69;5065758;28;20030;-74
2022/03/26 09:40:16;;;;;;;79.57;39.03;;;;;;;15.95;27.63;103361.63;5065973;28;20036;-72
2022/03/26 09:42:41;;;;;;;80.35;38.50;;;;;;;17.01;25.70;103361.06;5066056;28;20108;-75
2022/03/26 09:45:08;;;;;;;97.93;42.70;;;;;;;16.30;27.09;103359.66;5066394;28;20525;-74
2022/03/26 09:47:34;;;;;;;91.10;44.97;;;;;;;15.19;29.00;103358.94;5066901;28;20044;-73
2022/03/26 09:50:00;;;;;;;97.82;45.08;;;;;;;15.55;29.08;103357.91;5065544;28;20040;-72
2022/03/26 09:52:27;;;;;;;104.70;49.50;;;;;;;16.97;27.31;103366.22;5066497;28;20577;-74
2022/03/26 09:54:57;;;;;;;98.72;47.72;;;;;;;15.05;29.50;103364.84;5069570;28;20042;-73
2022/03/26 09:57:22;;;;;;;97.85;45.72;;;;;;;15.34;29.81;103350.28;5052743;28;20033;-73
2022/03/26 09:59:48;;;;;;;98.05;46.03;;;;;;;15.93;28.23;103349.25;5069249;28;20028;-75
2022/03/26 10:02:13;;;;;;;101.50;48.45;;;;;;;16.40;27.72;103356.28;5070245;28;20051;-72
2022/03/26 10:04:40;;;;;;;91.25;43.85;;;;;;;16.84;27.31;103361.03;5065595;28;20033;-73
2022/03/26 10:07:07;;;;;;;84.78;39.72;;;;;;;15.69;28.06;103356.59;5058864;28;20085;-73
2022/03/26 10:09:46;;;;;;;95.63;45.17;;;;;;;16.17;27.42;103356.38;5063133;28;20060;-72
2022/03/26 10:12:12;;;;;;;85.03;43.33;;;;;;;16.62;26.79;103349.91;5071181;28;20029;-72
2022/03/26 10:14:40;;;;;;;97.70;46.38;;;;;;;15.85;28.21;103355.94;5065422;28;20029;-74
2022/03/26 10:17:15;;;;;;;77.60;40.97;;;;;;;16.77;26.78;103354.03;5071469;28;20251;-75
2022/03/26 10:19:41;;;;;;;79.82;40.40;;;;;;;15.50;28.53;103350.41;5072790;28;20028;-74
2022/03/26 10:22:20;;;;;;;78.05;40.55;;;;;;;17.47;26.38;103347.06;5061268;28;20271;-73
2022/03/26 10:24:45;;;;;;;65.35;32.08;;;;;;;15.47;28.09;103353.63;5056836;28;20093;-73
2022/03/26 10:27:11;;;;;;;73.93;36.03;;;;;;;16.22;27.40;103350.97;5064916;28;20036;-74
2022/03/26 10:29:53;;;;;;;78.40;37.85;;;;;;;18.10;24.86;103347.47;5065636;28;20044;-74
2022/03/26 10:32:39;;;;;;;86.88;36.88;;;;;;;17.46;25.94;103340.75;5065585;28;20466;-73
2022/03/26 10:35:25;;;;;;;82.22;39.45;;;;;;;17.77;25.51;103346.69;5045324;28;20151;-75
2022/03/26 10:38:01;;;;;;;79.03;39.55;;;;;;;16.68;27.06;103345.38;5060940;28;20521;-73
2022/03/26 10:40:35;;;;;;;89.47;40.67;;;;;;;17.51;25.81;103338.06;5066870;28;20052;-73
2022/03/26 10:43:11;;;;;;;78.95;38.88;;;;;;;18.20;24.92;103344.00;5067850;28;20037;-72
2022/03/26 10:45:51;;;;;;;67.43;33.63;;;;;;;18.42;23.74;103344.84;5068205;28;20040;-74
2022/03/26 10:48:24;;;;;;;72.25;33.42;;;;;;;18.53;23.81;103338.38;5068053;28;20127;-74
2022/03/26 10:50:58;;;;;;;66.40;31.58;;;;;;;18.57;23.68;103335.94;5069675;28;20064;-74
2022/03/26 10:53:36;;;;;;;59.08;30.70;;;;;;;17.41;25.35;103324.19;5052729;28;20052;-73
2022/03/26 10:56:06;;;;;;;60.80;31.42;;;;;;;16.51;26.53;103334.31;5066827;28;20063;-74
2022/03/26 10:58:34;;;;;;;69.50;35.10;;;;;;;18.11;24.98;103329.06;5060878;28;20264;-74
2022/03/26 11:01:00;;;;;;;71.82;34.15;;;;;;;18.04;24.96;103328.41;5068820;28;20033;-73
2022/03/26 11:03:26;;;;;;;71.80;32.28;;;;;;;17.19;26.35;103327.91;5068663;28;20519;-74
2022/03/26 11:05:56;;;;;;;67.57;31.88;;;;;;;17.32;25.29;103325.69;5050383;28;20494;-73
2022/03/26 11:08:24;;;;;;;61.03;30.37;;;;;;;17.06;25.24;103333.72;5069038;28;20040;-74